createdAt,value
2018-05-04T00:00:41.458Z,0.00
2018-05-04T00:01:41.476Z,0.00
2018-05-04T00:02:41.492Z,0.00
2018-05-04T00:03:41.515Z,0.00
2018-05-04T00:04:41.535Z,0.00
2018-05-04T00:05:41.547Z,0.00
2018-05-04T00:06:41.566Z,0.00
2018-05-04T00:07:41.580Z,0.00
2018-05-04T00:08:41.595Z,0.00
2018-05-04T00:09:41.610Z,0.00
2018-05-04T00:10:41.687Z,0.00
2018-05-04T00:11:41.649Z,0.00
2018-05-04T00:12:41.751Z,0.00
2018-05-04T00:13:41.684Z,0.00
2018-05-04T00:14:41.695Z,0.00
2018-05-04T00:15:41.720Z,0.00
2018-05-04T00:16:41.734Z,0.00
2018-05-04T00:17:41.747Z,0.00
2018-05-04T00:18:41.770Z,0.00
2018-05-04T00:19:41.785Z,0.00
2018-05-04T00:20:41.797Z,0.00
2018-05-04T00:21:41.820Z,0.00
2018-05-04T00:22:41.884Z,0.00
2018-05-04T00:23:41.852Z,0.00
2018-05-04T00:24:41.895Z,0.00
2018-05-04T00:25:41.884Z,0.00
2018-05-04T00:26:41.905Z,0.00
2018-05-04T00:27:41.919Z,0.00
2018-05-04T00:28:41.939Z,0.00
2018-05-04T00:29:41.957Z,0.00
2018-05-04T00:30:41.997Z,0.00
2018-05-04T00:31:41.986Z,0.00
2018-05-04T00:32:42.002Z,0.00
2018-05-04T00:33:42.019Z,0.00
2018-05-04T00:34:42.040Z,0.00
2018-05-04T00:35:42.055Z,0.00
2018-05-04T00:36:42.075Z,0.00
2018-05-04T00:37:42.093Z,0.00
2018-05-04T00:38:42.107Z,0.00
2018-05-04T00:39:42.135Z,0.00
2018-05-04T00:40:42.146Z,0.00
2018-05-04T00:41:42.164Z,0.00
2018-05-04T00:42:42.176Z,0.00
2018-05-04T00:43:42.197Z,0.00
2018-05-04T00:44:42.213Z,0.00
2018-05-04T00:45:42.226Z,0.00
2018-05-04T00:46:42.295Z,0.00
2018-05-04T00:47:42.265Z,0.00
2018-05-04T00:48:42.276Z,0.00
2018-05-04T00:49:42.296Z,0.00
2018-05-04T00:50:42.308Z,0.00
2018-05-04T00:51:42.329Z,0.00
2018-05-04T00:52:42.347Z,0.00
2018-05-04T00:53:42.373Z,0.00
2018-05-04T00:54:42.380Z,0.00
2018-05-04T00:55:42.398Z,0.00
2018-05-04T00:56:42.420Z,0.00
2018-05-04T00:57:42.435Z,0.00
2018-05-04T00:58:42.502Z,0.00
2018-05-04T00:59:42.471Z,0.00
2018-05-04T01:00:42.490Z,0.00
2018-05-04T01:01:42.539Z,0.00
2018-05-04T01:02:42.515Z,0.00
2018-05-04T01:03:42.534Z,0.00
2018-05-04T01:04:42.558Z,0.00
2018-05-04T01:05:42.568Z,0.00
2018-05-04T01:06:42.591Z,0.00
2018-05-04T01:07:42.688Z,0.00
2018-05-04T01:08:42.624Z,0.00
2018-05-04T01:09:42.640Z,0.00
2018-05-04T01:10:42.657Z,0.00
2018-05-04T01:11:42.671Z,0.00
2018-05-04T01:12:42.695Z,0.00
2018-05-04T01:13:42.712Z,0.00
2018-05-04T01:14:42.726Z,0.00
2018-05-04T01:15:42.748Z,0.00
2018-05-04T01:16:42.807Z,0.00
2018-05-04T01:17:42.777Z,0.00
2018-05-04T01:18:42.795Z,0.00
2018-05-04T01:19:42.813Z,0.00
2018-05-04T01:20:42.825Z,0.00
2018-05-04T01:21:42.849Z,0.00
2018-05-04T01:22:42.916Z,0.00
2018-05-04T01:23:42.875Z,0.00
2018-05-04T01:24:42.893Z,0.00
2018-05-04T01:25:42.915Z,0.00
2018-05-04T01:26:43.002Z,0.00
2018-05-04T01:27:42.949Z,0.00
2018-05-04T01:28:43.021Z,0.00
2018-05-04T01:29:42.980Z,0.00
2018-05-04T01:30:42.994Z,0.00
2018-05-04T01:31:43.015Z,0.00
2018-05-04T01:32:43.107Z,0.00
2018-05-04T01:33:43.051Z,0.00
2018-05-04T01:34:43.066Z,0.00
2018-05-04T01:35:43.082Z,0.00
2018-05-04T01:36:43.099Z,0.00
2018-05-04T01:37:43.123Z,0.00
2018-05-04T01:38:43.170Z,0.00
2018-05-04T01:39:43.151Z,0.00
2018-05-04T01:40:43.219Z,0.00
2018-05-04T01:41:43.189Z,0.00
2018-05-04T01:42:43.200Z,0.00
2018-05-04T01:43:43.219Z,0.00
2018-05-04T01:44:43.246Z,0.00
2018-05-04T01:45:43.266Z,0.00
2018-05-04T01:46:43.276Z,0.00
2018-05-04T01:47:43.289Z,0.00
2018-05-04T01:48:43.308Z,0.00
2018-05-04T01:49:43.322Z,0.00
2018-05-04T01:50:43.340Z,0.00
2018-05-04T01:51:43.356Z,0.00
2018-05-04T01:52:43.427Z,0.00
2018-05-04T01:53:43.388Z,0.00
2018-05-04T01:54:43.414Z,0.00
2018-05-04T01:55:43.422Z,0.00
2018-05-04T01:56:43.446Z,0.00
2018-05-04T01:57:43.461Z,0.00
2018-05-04T01:58:43.546Z,0.00
2018-05-04T01:59:43.497Z,0.00
2018-05-04T02:00:43.509Z,0.00
2018-05-04T02:01:43.532Z,0.00
2018-05-04T02:02:43.545Z,0.00
2018-05-04T02:03:43.560Z,0.00
2018-05-04T02:04:43.631Z,0.00
2018-05-04T02:05:43.599Z,0.00
2018-05-04T02:06:43.609Z,0.00
2018-05-04T02:07:43.699Z,0.00
2018-05-04T02:08:43.650Z,0.00
2018-05-04T02:09:43.751Z,0.00
2018-05-04T02:10:43.689Z,0.00
2018-05-04T02:11:43.700Z,0.00
2018-05-04T02:12:43.715Z,0.00
2018-05-04T02:13:43.728Z,0.00
2018-05-04T02:14:43.754Z,0.00
2018-05-04T02:15:43.820Z,0.00
2018-05-04T02:16:43.831Z,0.00
2018-05-04T02:17:43.798Z,0.00
2018-05-04T02:18:43.819Z,0.00
2018-05-04T02:19:43.836Z,0.00
2018-05-04T02:20:43.852Z,0.00
2018-05-04T02:21:43.925Z,0.00
2018-05-04T02:22:43.938Z,0.00
2018-05-04T02:23:43.898Z,0.00
2018-05-04T02:24:43.916Z,0.00
2018-05-04T02:25:43.944Z,0.00
2018-05-04T02:26:43.953Z,0.00
2018-05-04T02:27:43.974Z,0.00
2018-05-04T02:28:47.091Z,0.00
2018-05-04T02:29:44.001Z,0.00
2018-05-04T02:30:44.025Z,0.00
2018-05-04T02:31:44.035Z,0.00
2018-05-04T02:32:44.055Z,0.00
2018-05-04T02:33:44.118Z,0.00
2018-05-04T02:34:44.093Z,0.00
2018-05-04T02:35:44.103Z,0.00
2018-05-04T02:36:44.124Z,0.00
2018-05-04T02:37:44.143Z,0.00
2018-05-04T02:38:44.161Z,0.00
2018-05-04T02:39:44.194Z,0.00
2018-05-04T02:40:44.186Z,0.00
2018-05-04T02:41:44.211Z,0.00
2018-05-04T02:42:44.221Z,0.00
2018-05-04T02:43:44.244Z,0.00
2018-05-04T02:44:44.253Z,0.00
2018-05-04T02:45:44.361Z,0.00
2018-05-04T02:46:44.293Z,0.00
2018-05-04T02:47:44.313Z,0.00
2018-05-04T02:48:44.321Z,0.00
2018-05-04T02:49:44.342Z,0.00
2018-05-04T02:50:44.357Z,0.00
2018-05-04T02:51:44.379Z,0.00
2018-05-04T02:52:44.399Z,0.00
2018-05-04T02:53:44.409Z,0.00
2018-05-04T02:54:44.428Z,0.00
2018-05-04T02:55:44.444Z,0.00
2018-05-04T02:56:44.477Z,0.00
2018-05-04T02:57:44.478Z,0.00
2018-05-04T02:58:44.494Z,0.00
2018-05-04T02:59:44.513Z,0.00
2018-05-04T03:00:44.527Z,0.00
2018-05-04T03:01:44.547Z,0.00
2018-05-04T03:02:44.559Z,0.00
2018-05-04T03:03:44.638Z,0.00
2018-05-04T03:04:44.589Z,0.00
2018-05-04T03:05:44.619Z,0.00
2018-05-04T03:06:44.629Z,0.00
2018-05-04T03:07:44.643Z,0.00
2018-05-04T03:08:44.661Z,0.00
2018-05-04T03:09:44.762Z,0.00
2018-05-04T03:10:44.695Z,0.00
2018-05-04T03:11:44.707Z,0.00
2018-05-04T03:12:44.728Z,0.00
2018-05-04T03:13:44.741Z,0.00
2018-05-04T03:14:44.764Z,0.00
2018-05-04T03:15:44.834Z,0.00
2018-05-04T03:16:44.799Z,0.00
2018-05-04T03:17:44.808Z,0.00
2018-05-04T03:18:44.828Z,0.00
2018-05-04T03:19:44.842Z,0.00
2018-05-04T03:20:44.861Z,0.00
2018-05-04T03:21:44.881Z,0.00
2018-05-04T03:22:44.897Z,0.00
2018-05-04T03:23:44.911Z,0.00
2018-05-04T03:24:44.928Z,0.00
2018-05-04T03:25:44.944Z,0.00
2018-05-04T03:26:44.959Z,0.00
2018-05-04T03:27:44.978Z,0.00
2018-05-04T03:28:44.996Z,0.00
2018-05-04T03:29:45.015Z,0.00
2018-05-04T03:30:45.032Z,0.00
2018-05-04T03:31:45.051Z,0.00
2018-05-04T03:32:45.070Z,0.00
2018-05-04T03:33:45.085Z,0.00
2018-05-04T03:34:45.093Z,0.00
2018-05-04T03:35:45.115Z,0.00
2018-05-04T03:36:45.131Z,0.00
2018-05-04T03:37:45.153Z,0.00
2018-05-04T03:38:45.168Z,0.00
2018-05-04T03:39:45.233Z,0.00
2018-05-04T03:40:45.205Z,0.00
2018-05-04T03:41:45.215Z,0.00
2018-05-04T03:42:45.238Z,0.00
2018-05-04T03:43:45.248Z,0.00
2018-05-04T03:44:45.271Z,0.00
2018-05-04T03:45:45.283Z,0.00
2018-05-04T03:46:45.318Z,0.00
2018-05-04T03:47:45.321Z,0.00
2018-05-04T03:48:45.391Z,0.00
2018-05-04T03:49:45.355Z,0.00
2018-05-04T03:50:45.371Z,0.00
2018-05-04T03:51:45.435Z,0.00
2018-05-04T03:52:45.406Z,0.00
2018-05-04T03:53:45.419Z,0.00
2018-05-04T03:54:45.433Z,0.00
2018-05-04T03:55:45.452Z,0.00
2018-05-04T03:56:45.483Z,0.00
2018-05-04T03:57:45.537Z,0.00
2018-05-04T03:58:45.507Z,0.00
2018-05-04T03:59:45.520Z,0.00
2018-05-04T04:00:45.535Z,0.00
2018-05-04T04:01:45.557Z,0.00
2018-05-04T04:02:45.571Z,0.00
2018-05-04T04:03:45.593Z,0.00
2018-05-04T04:04:45.687Z,0.00
2018-05-04T04:05:45.623Z,0.00
2018-05-04T04:06:45.642Z,0.00
2018-05-04T04:07:45.660Z,0.00
2018-05-04T04:08:45.675Z,0.00
2018-05-04T04:09:45.694Z,0.00
2018-05-04T04:10:45.757Z,0.00
2018-05-04T04:11:45.726Z,0.00
2018-05-04T04:12:45.744Z,0.00
2018-05-04T04:13:45.757Z,0.00
2018-05-04T04:14:45.776Z,0.00
2018-05-04T04:15:45.845Z,0.00
2018-05-04T04:16:45.820Z,0.00
2018-05-04T04:17:45.829Z,0.00
2018-05-04T04:18:45.843Z,0.00
2018-05-04T04:19:45.863Z,0.00
2018-05-04T04:20:45.879Z,0.00
2018-05-04T04:21:45.943Z,0.00
2018-05-04T04:22:45.905Z,0.00
2018-05-04T04:23:45.922Z,0.00
2018-05-04T04:24:45.943Z,0.00
2018-05-04T04:25:45.963Z,0.00
2018-05-04T04:26:45.981Z,0.00
2018-05-04T04:27:45.990Z,0.00
2018-05-04T04:28:46.009Z,0.00
2018-05-04T04:29:46.098Z,0.00
2018-05-04T04:30:46.044Z,0.00
2018-05-04T04:31:46.060Z,0.00
2018-05-04T04:32:46.077Z,0.00
2018-05-04T04:33:46.100Z,0.00
2018-05-04T04:34:46.108Z,0.00
2018-05-04T04:35:46.132Z,0.00
2018-05-04T04:36:46.146Z,0.00
2018-05-04T04:37:46.160Z,0.00
2018-05-04T04:38:46.228Z,0.00
2018-05-04T04:39:46.247Z,0.00
2018-05-04T04:40:46.211Z,0.00
2018-05-04T04:41:46.231Z,0.00
2018-05-04T04:42:46.260Z,0.00
2018-05-04T04:43:46.261Z,0.00
2018-05-04T04:44:46.277Z,0.00
2018-05-04T04:45:46.300Z,0.00
2018-05-04T04:46:46.314Z,0.00
2018-05-04T04:47:46.334Z,0.00
2018-05-04T04:48:46.354Z,0.00
2018-05-04T04:49:46.362Z,0.00
2018-05-04T04:50:46.385Z,0.00
2018-05-04T04:51:46.494Z,0.00
2018-05-04T04:52:46.421Z,0.00
2018-05-04T04:53:46.434Z,0.00
2018-05-04T04:54:46.450Z,0.00
2018-05-04T04:55:46.466Z,0.00
2018-05-04T04:56:46.491Z,0.00
2018-05-04T04:57:46.497Z,0.00
2018-05-04T04:58:46.515Z,0.00
2018-05-04T04:59:46.568Z,0.00
2018-05-04T05:00:46.550Z,0.00
2018-05-04T05:01:46.601Z,0.00
2018-05-04T05:03:46.649Z,0.00
2018-05-04T05:04:46.619Z,0.00
2018-05-04T05:05:46.633Z,0.00
2018-05-04T05:06:46.655Z,0.00
2018-05-04T05:07:46.671Z,0.00
2018-05-04T05:08:46.689Z,0.00
2018-05-04T05:09:46.757Z,0.00
2018-05-04T05:10:46.717Z,0.00
2018-05-04T05:11:46.743Z,0.00
2018-05-04T05:12:46.756Z,0.00
2018-05-04T05:13:46.774Z,0.00
2018-05-04T05:14:46.782Z,0.00
2018-05-04T05:15:46.858Z,0.00
2018-05-04T05:16:46.820Z,0.00
2018-05-04T05:17:46.837Z,0.00
2018-05-04T05:18:46.856Z,0.00
2018-05-04T05:19:46.869Z,0.00
2018-05-04T05:20:46.890Z,0.00
2018-05-04T05:21:46.971Z,0.00
2018-05-04T05:22:46.924Z,0.00
2018-05-04T05:23:47.021Z,0.00
2018-05-04T05:24:46.959Z,0.00
2018-05-04T05:25:46.975Z,0.00
2018-05-04T05:26:46.991Z,0.00
2018-05-04T05:27:47.056Z,0.00
2018-05-04T05:28:47.020Z,0.00
2018-05-04T05:29:47.043Z,0.00
2018-05-04T05:30:47.130Z,0.00
2018-05-04T05:31:47.076Z,0.00
2018-05-04T05:32:47.096Z,0.00
2018-05-04T05:33:47.107Z,0.00
2018-05-04T05:34:47.123Z,0.00
2018-05-04T05:35:47.144Z,0.00
2018-05-04T05:36:47.232Z,0.00
2018-05-04T05:37:47.179Z,5.63
2018-05-04T05:38:47.192Z,5.63
2018-05-04T05:39:47.259Z,5.63
2018-05-04T05:40:47.223Z,5.63
2018-05-04T05:41:47.242Z,5.63
2018-05-04T05:42:47.268Z,5.63
2018-05-04T05:43:47.277Z,5.63
2018-05-04T05:44:47.295Z,5.63
2018-05-04T05:45:47.356Z,11.25
2018-05-04T05:46:47.321Z,11.25
2018-05-04T05:47:47.338Z,11.25
2018-05-04T05:48:47.397Z,11.25
2018-05-04T05:49:47.376Z,11.25
2018-05-04T05:50:47.394Z,11.25
2018-05-04T05:51:47.450Z,16.88
2018-05-04T05:52:47.429Z,16.88
2018-05-04T05:53:47.444Z,16.88
2018-05-04T05:54:47.529Z,16.88
2018-05-04T05:55:47.479Z,16.88
2018-05-04T05:56:47.494Z,16.88
2018-05-04T05:57:47.569Z,22.50
2018-05-04T05:58:47.532Z,22.50
2018-05-04T05:59:47.546Z,22.50
2018-05-04T06:00:47.564Z,22.50
2018-05-04T06:01:47.576Z,22.50
2018-05-04T06:02:47.595Z,28.13
2018-05-04T06:03:47.661Z,28.13
2018-05-04T06:04:47.627Z,28.13
2018-05-04T06:05:47.653Z,28.13
2018-05-04T06:06:47.658Z,28.13
2018-05-04T06:07:47.678Z,33.75
2018-05-04T06:08:47.693Z,33.75
2018-05-04T06:09:47.742Z,33.75
2018-05-04T06:10:47.725Z,33.75
2018-05-04T06:11:47.749Z,33.75
2018-05-04T06:12:47.760Z,33.75
2018-05-04T06:13:47.782Z,39.38
2018-05-04T06:14:47.794Z,39.38
2018-05-04T06:15:47.819Z,39.38
2018-05-04T06:16:47.830Z,39.38
2018-05-04T06:17:47.852Z,39.38
2018-05-04T06:18:47.863Z,39.38
2018-05-04T06:19:47.885Z,45.00
2018-05-04T06:20:47.901Z,45.00
2018-05-04T06:21:47.920Z,45.00
2018-05-04T06:22:47.938Z,45.00
2018-05-04T06:23:47.954Z,45.00
2018-05-04T06:24:47.969Z,45.00
2018-05-04T06:25:48.044Z,50.63
2018-05-04T06:26:48.006Z,50.63
2018-05-04T06:27:48.021Z,50.63
2018-05-04T06:28:48.031Z,50.63
2018-05-04T06:29:48.055Z,56.25
2018-05-04T06:30:48.069Z,56.25
2018-05-04T06:31:48.174Z,56.25
2018-05-04T06:32:48.104Z,61.88
2018-05-04T06:33:48.229Z,61.88
2018-05-04T06:34:48.137Z,61.88
2018-05-04T06:35:48.154Z,67.50
2018-05-04T06:36:48.170Z,67.50
2018-05-04T06:37:48.225Z,73.13
2018-05-04T06:38:48.209Z,73.13
2018-05-04T06:39:48.280Z,73.13
2018-05-04T06:40:48.243Z,73.13
2018-05-04T06:41:48.258Z,78.75
2018-05-04T06:42:48.277Z,78.75
2018-05-04T06:43:48.291Z,84.38
2018-05-04T06:44:48.311Z,95.63
2018-05-04T06:45:48.383Z,101.25
2018-05-04T06:46:48.347Z,118.13
2018-05-04T06:47:48.361Z,129.38
2018-05-04T06:48:48.435Z,157.50
2018-05-04T06:49:48.435Z,168.75
2018-05-04T06:50:48.416Z,180.00
2018-05-04T06:51:48.485Z,191.25
2018-05-04T06:52:48.458Z,196.88
2018-05-04T06:53:48.466Z,202.50
2018-05-04T06:54:48.483Z,202.50
2018-05-04T06:55:48.503Z,202.50
2018-05-04T06:56:48.520Z,208.13
2018-05-04T06:57:48.540Z,213.75
2018-05-04T06:58:48.552Z,219.38
2018-05-04T06:59:48.576Z,225.00
2018-05-04T07:00:48.596Z,230.63
2018-05-04T07:01:48.613Z,236.25
2018-05-04T07:02:48.625Z,241.88
2018-05-04T07:03:48.711Z,247.50
2018-05-04T07:04:48.669Z,247.50
2018-05-04T07:05:48.681Z,258.75
2018-05-04T07:06:48.699Z,258.75
2018-05-04T07:07:48.719Z,258.75
2018-05-04T07:08:48.735Z,258.75
2018-05-04T07:09:48.806Z,264.38
2018-05-04T07:10:48.774Z,270.00
2018-05-04T07:11:48.789Z,270.00
2018-05-04T07:12:48.812Z,281.25
2018-05-04T07:13:48.834Z,264.38
2018-05-04T07:14:48.850Z,258.75
2018-05-04T07:15:48.922Z,264.38
2018-05-04T07:16:48.884Z,264.38
2018-05-04T07:17:48.905Z,241.88
2018-05-04T07:18:48.915Z,236.25
2018-05-04T07:19:48.941Z,247.50
2018-05-04T07:20:48.958Z,241.88
2018-05-04T07:21:48.971Z,236.25
2018-05-04T07:22:48.993Z,236.25
2018-05-04T07:23:49.010Z,292.50
2018-05-04T07:24:49.030Z,298.13
2018-05-04T07:25:49.054Z,320.63
2018-05-04T07:26:49.073Z,315.00
2018-05-04T07:27:49.142Z,309.38
2018-05-04T07:28:49.203Z,320.63
2018-05-04T07:29:49.125Z,286.88
2018-05-04T07:30:49.139Z,281.25
2018-05-04T07:31:49.158Z,298.13
2018-05-04T07:34:49.276Z,258.75
2018-05-04T07:37:49.377Z,281.25
2018-05-04T07:39:49.371Z,270.00
2018-05-04T07:40:49.330Z,253.13
2018-05-04T07:41:49.358Z,292.50
2018-05-04T07:42:49.367Z,326.25
2018-05-04T07:43:49.437Z,320.63
2018-05-04T07:44:49.405Z,303.75
2018-05-04T07:45:49.474Z,320.63
2018-05-04T07:46:49.446Z,343.13
2018-05-04T07:48:49.537Z,371.25
2018-05-04T07:49:49.534Z,382.50
2018-05-04T07:55:49.623Z,399.38
2018-05-04T07:56:49.637Z,320.63
2018-05-04T07:57:49.705Z,405.00
2018-05-04T07:58:49.677Z,416.25
2018-05-04T07:59:49.691Z,416.25
2018-05-04T08:00:49.720Z,405.00
2018-05-04T08:01:49.730Z,427.50
2018-05-04T08:02:49.834Z,450.00
2018-05-04T08:03:49.819Z,416.25
2018-05-04T08:04:49.786Z,393.75
2018-05-04T08:05:49.812Z,421.88
2018-05-04T08:06:49.824Z,343.13
2018-05-04T08:07:49.849Z,343.13
2018-05-04T08:08:49.880Z,399.38
2018-05-04T08:09:49.934Z,466.88
2018-05-04T08:10:49.904Z,427.50
2018-05-04T08:11:49.929Z,416.25
2018-05-04T08:12:49.946Z,450.00
2018-05-04T08:13:49.970Z,405.00
2018-05-04T08:14:49.985Z,393.75
2018-05-04T08:15:50.053Z,416.25
2018-05-04T08:16:50.026Z,461.25
2018-05-04T08:17:50.041Z,466.88
2018-05-04T08:18:50.066Z,500.63
2018-05-04T08:19:50.087Z,506.25
2018-05-04T08:20:50.100Z,511.88
2018-05-04T08:21:50.260Z,511.88
2018-05-04T08:22:50.143Z,500.63
2018-05-04T08:23:50.158Z,455.63
2018-05-04T08:24:50.186Z,410.63
2018-05-04T08:25:50.204Z,427.50
2018-05-04T08:26:50.223Z,511.88
2018-05-04T08:27:50.413Z,511.88
2018-05-04T08:28:50.265Z,489.38
2018-05-04T08:29:50.278Z,523.13
2018-05-04T08:30:50.298Z,517.50
2018-05-04T08:31:50.320Z,534.38
2018-05-04T08:32:50.344Z,523.13
2018-05-04T08:33:50.384Z,517.50
2018-05-04T08:34:50.381Z,495.00
2018-05-04T08:35:50.404Z,410.63
2018-05-04T08:36:50.424Z,450.00
2018-05-04T08:37:50.442Z,410.63
2018-05-04T08:38:50.466Z,315.00
2018-05-04T08:39:50.514Z,315.00
2018-05-04T08:40:50.588Z,376.88
2018-05-04T08:41:50.521Z,410.63
2018-05-04T08:42:50.577Z,461.25
2018-05-04T08:43:50.563Z,393.75
2018-05-04T08:44:50.586Z,450.00
2018-05-04T08:45:50.647Z,495.00
2018-05-04T08:46:50.621Z,517.50
2018-05-04T08:47:50.642Z,540.00
2018-05-04T08:48:50.661Z,472.50
2018-05-04T08:49:50.684Z,528.75
2018-05-04T08:50:50.730Z,551.25
2018-05-04T08:51:50.775Z,568.13
2018-05-04T08:52:50.741Z,568.13
2018-05-04T08:53:50.777Z,568.13
2018-05-04T08:54:50.785Z,573.75
2018-05-04T08:55:50.804Z,579.38
2018-05-04T08:56:50.826Z,579.38
2018-05-04T08:57:50.899Z,579.38
2018-05-04T08:58:50.865Z,579.38
2018-05-04T08:59:50.889Z,579.38
2018-05-04T09:00:50.910Z,579.38
2018-05-04T09:01:50.932Z,579.38
2018-05-04T09:02:50.951Z,579.38
2018-05-04T09:03:51.050Z,585.00
2018-05-04T09:04:50.997Z,585.00
2018-05-04T09:05:51.015Z,590.63
2018-05-04T09:06:51.027Z,590.63
2018-05-04T09:07:51.050Z,579.38
2018-05-04T09:08:51.075Z,585.00
2018-05-04T09:09:51.142Z,590.63
2018-05-04T09:10:51.115Z,590.63
2018-05-04T09:11:51.140Z,590.63
2018-05-04T09:12:51.262Z,590.63
2018-05-04T09:13:51.179Z,596.25
2018-05-04T09:14:51.206Z,596.25
2018-05-04T09:15:51.269Z,596.25
2018-05-04T09:16:51.241Z,601.88
2018-05-04T09:17:51.260Z,601.88
2018-05-04T09:18:51.281Z,590.63
2018-05-04T09:19:51.381Z,601.88
2018-05-04T09:20:51.325Z,601.88
2018-05-04T09:21:51.345Z,601.88
2018-05-04T09:22:51.370Z,590.63
2018-05-04T09:23:51.388Z,590.63
2018-05-04T09:24:51.411Z,607.50
2018-05-04T09:25:51.437Z,613.13
2018-05-04T09:26:51.456Z,607.50
2018-05-04T09:27:51.515Z,613.13
2018-05-04T09:28:51.498Z,613.13
2018-05-04T09:29:51.520Z,613.13
2018-05-04T09:30:51.645Z,624.38
2018-05-04T09:31:51.564Z,618.75
2018-05-04T09:32:51.585Z,618.75
2018-05-04T09:33:51.674Z,618.75
2018-05-04T09:34:51.624Z,585.00
2018-05-04T09:35:51.643Z,624.38
2018-05-04T09:36:51.670Z,624.38
2018-05-04T09:37:51.690Z,624.38
2018-05-04T09:38:51.712Z,618.75
2018-05-04T09:39:51.779Z,624.38
2018-05-04T09:40:51.756Z,624.38
2018-05-04T09:41:51.779Z,630.00
2018-05-04T09:42:51.796Z,630.00
2018-05-04T09:43:51.904Z,630.00
2018-05-04T09:44:51.843Z,624.38
2018-05-04T09:45:51.867Z,607.50
2018-05-04T09:46:51.884Z,613.13
2018-05-04T09:47:51.910Z,618.75
2018-05-04T09:48:51.928Z,618.75
2018-05-04T09:49:51.951Z,624.38
2018-05-04T09:50:51.973Z,613.13
2018-05-04T09:51:52.047Z,624.38
2018-05-04T09:52:52.014Z,568.13
2018-05-04T09:53:52.038Z,596.25
2018-05-04T09:54:52.060Z,635.63
2018-05-04T09:55:52.117Z,585.00
2018-05-04T09:56:52.101Z,635.63
2018-05-04T09:57:52.127Z,635.63
2018-05-04T09:58:52.196Z,630.00
2018-05-04T09:59:52.171Z,630.00
2018-05-04T10:00:52.193Z,579.38
2018-05-04T10:01:52.211Z,613.13
2018-05-04T10:02:52.233Z,624.38
2018-05-04T10:03:52.253Z,624.38
2018-05-04T10:04:52.323Z,624.38
2018-05-04T10:05:52.299Z,624.38
2018-05-04T10:06:52.325Z,624.38
2018-05-04T10:07:52.344Z,630.00
2018-05-04T10:08:52.364Z,630.00
2018-05-04T10:09:52.444Z,630.00
2018-05-04T10:10:52.457Z,630.00
2018-05-04T10:11:52.433Z,641.25
2018-05-04T10:12:52.459Z,630.00
2018-05-04T10:13:52.478Z,607.50
2018-05-04T10:14:52.494Z,635.63
2018-05-04T10:15:52.522Z,585.00
2018-05-04T10:16:52.641Z,641.25
2018-05-04T10:17:52.564Z,635.63
2018-05-04T10:18:52.584Z,641.25
2018-05-04T10:19:52.612Z,641.25
2018-05-04T10:20:52.634Z,641.25
2018-05-04T10:21:52.683Z,579.38
2018-05-04T10:22:52.674Z,641.25
2018-05-04T10:23:52.696Z,646.88
2018-05-04T10:24:52.719Z,646.88
2018-05-04T10:25:52.740Z,646.88
2018-05-04T10:26:52.765Z,641.25
2018-05-04T10:27:52.793Z,646.88
2018-05-04T10:28:52.815Z,646.88
2018-05-04T10:29:52.835Z,646.88
2018-05-04T10:30:52.932Z,652.50
2018-05-04T10:31:52.882Z,646.88
2018-05-04T10:32:52.917Z,652.50
2018-05-04T10:33:52.947Z,652.50
2018-05-04T10:34:52.951Z,652.50
2018-05-04T10:35:52.987Z,652.50
2018-05-04T10:36:53.000Z,652.50
2018-05-04T10:37:53.018Z,658.13
2018-05-04T10:38:53.194Z,663.75
2018-05-04T10:39:53.065Z,658.13
2018-05-04T10:40:53.087Z,658.13
2018-05-04T10:41:53.116Z,658.13
2018-05-04T10:42:53.160Z,658.13
2018-05-04T10:43:53.156Z,658.13
2018-05-04T10:44:53.180Z,658.13
2018-05-04T10:45:53.205Z,658.13
2018-05-04T10:46:53.236Z,658.13
2018-05-04T10:47:53.248Z,658.13
2018-05-04T10:48:53.318Z,658.13
2018-05-04T10:49:53.297Z,658.13
2018-05-04T10:50:53.323Z,663.75
2018-05-04T10:51:53.340Z,663.75
2018-05-04T10:52:53.360Z,663.75
2018-05-04T10:53:53.384Z,663.75
2018-05-04T10:54:53.412Z,663.75
2018-05-04T10:55:53.432Z,669.38
2018-05-04T10:56:53.458Z,669.38
2018-05-04T10:57:53.481Z,669.38
2018-05-04T10:58:53.501Z,663.75
2018-05-04T10:59:53.529Z,663.75
2018-05-04T11:00:53.550Z,663.75
2018-05-04T11:01:53.568Z,669.38
2018-05-04T11:02:53.592Z,675.00
2018-05-04T11:03:53.670Z,675.00
2018-05-04T11:04:53.671Z,669.38
2018-05-04T11:05:53.661Z,669.38
2018-05-04T11:06:53.685Z,675.00
2018-05-04T11:07:53.710Z,669.38
2018-05-04T11:15:53.953Z,658.13
2018-05-04T11:16:53.922Z,658.13
2018-05-04T11:18:53.962Z,663.75
2018-05-04T11:19:53.991Z,663.75
2018-05-04T11:20:54.016Z,658.13
2018-05-04T11:21:54.085Z,675.00
2018-05-04T11:22:54.065Z,680.63
2018-05-04T11:23:54.145Z,680.63
2018-05-04T11:24:54.116Z,680.63
2018-05-04T11:26:54.162Z,680.63
2018-05-04T11:31:54.276Z,680.63
2018-05-04T11:32:54.295Z,686.25
2018-05-04T11:33:54.373Z,680.63
2018-05-04T11:34:54.345Z,680.63
2018-05-04T11:35:54.449Z,680.63
2018-05-04T11:36:54.396Z,686.25
2018-05-04T11:37:54.422Z,680.63
2018-05-04T11:38:54.519Z,680.63
2018-05-04T11:39:54.469Z,675.00
2018-05-04T11:40:54.496Z,675.00
2018-05-04T11:41:54.565Z,675.00
2018-05-04T11:42:54.541Z,680.63
2018-05-04T11:43:54.570Z,675.00
2018-05-04T11:50:54.745Z,680.63
2018-05-04T11:52:54.782Z,675.00
2018-05-04T11:53:54.885Z,680.63
2018-05-04T11:54:54.831Z,675.00
2018-05-04T11:55:54.849Z,680.63
2018-05-04T11:56:54.878Z,680.63
2018-05-04T11:57:54.951Z,680.63
2018-05-04T11:58:54.929Z,675.00
2018-05-04T11:59:55.043Z,675.00
2018-05-04T12:00:54.971Z,680.63
2018-05-04T12:01:55.001Z,675.00
2018-05-04T12:02:55.024Z,675.00
2018-05-04T12:03:55.126Z,675.00
2018-05-04T12:04:55.155Z,680.63
2018-05-04T12:05:55.090Z,675.00
2018-05-04T12:06:55.114Z,675.00
2018-05-04T12:07:55.141Z,675.00
2018-05-04T12:08:55.172Z,680.63
2018-05-04T12:09:55.195Z,675.00
2018-05-04T12:10:55.250Z,680.63
2018-05-04T12:11:55.242Z,680.63
2018-05-04T12:12:55.264Z,680.63
2018-05-04T12:13:55.294Z,675.00
2018-05-04T12:14:55.316Z,675.00
2018-05-04T12:15:55.338Z,669.38
2018-05-04T12:16:55.368Z,680.63
2018-05-04T12:17:55.432Z,675.00
2018-05-04T12:18:55.417Z,663.75
2018-05-04T12:19:55.438Z,675.00
2018-05-04T12:20:55.466Z,675.00
2018-05-04T12:21:55.545Z,675.00
2018-05-04T12:22:55.577Z,680.63
2018-05-04T12:23:55.534Z,675.00
2018-05-04T12:24:55.562Z,675.00
2018-05-04T12:25:55.585Z,680.63
2018-05-04T12:26:55.614Z,686.25
2018-05-04T12:27:55.689Z,691.88
2018-05-04T12:28:55.670Z,720.00
2018-05-04T12:29:55.689Z,686.25
2018-05-04T12:30:55.716Z,714.38
2018-05-04T12:31:55.741Z,736.88
2018-05-04T12:32:55.764Z,658.13
2018-05-04T12:33:55.789Z,708.75
2018-05-04T12:34:55.859Z,703.13
2018-05-04T12:35:55.832Z,697.50
2018-05-04T12:36:55.855Z,686.25
2018-05-04T12:37:55.927Z,697.50
2018-05-04T12:38:55.905Z,686.25
2018-05-04T12:39:55.984Z,686.25
2018-05-04T12:40:55.954Z,669.38
2018-05-04T12:41:55.980Z,669.38
2018-05-04T12:42:56.098Z,675.00
2018-05-04T12:43:56.037Z,675.00
2018-05-04T12:44:56.053Z,669.38
2018-05-04T12:45:56.074Z,669.38
2018-05-04T12:46:56.178Z,669.38
2018-05-04T12:47:56.122Z,669.38
2018-05-04T12:48:56.150Z,663.75
2018-05-04T12:49:56.168Z,669.38
2018-05-04T12:50:56.194Z,669.38
2018-05-04T12:51:56.268Z,669.38
2018-05-04T12:52:56.243Z,669.38
2018-05-04T12:53:56.273Z,669.38
2018-05-04T12:54:56.296Z,607.50
2018-05-04T12:55:56.321Z,669.38
2018-05-04T12:56:56.345Z,663.75
2018-05-04T12:57:56.369Z,663.75
2018-05-04T12:58:56.397Z,663.75
2018-05-04T12:59:56.417Z,663.75
2018-05-04T13:00:56.514Z,669.38
2018-05-04T13:01:56.464Z,663.75
2018-05-04T13:02:56.491Z,658.13
2018-05-04T13:03:56.564Z,663.75
2018-05-04T13:04:56.540Z,663.75
2018-05-04T13:05:56.558Z,658.13
2018-05-04T13:06:56.597Z,658.13
2018-05-04T13:07:56.612Z,658.13
2018-05-04T13:08:56.636Z,658.13
2018-05-04T13:09:56.658Z,658.13
2018-05-04T13:10:56.684Z,635.63
2018-05-04T13:11:56.704Z,658.13
2018-05-04T13:12:56.797Z,652.50
2018-05-04T13:13:56.751Z,646.88
2018-05-04T13:14:56.780Z,613.13
2018-05-04T13:15:56.805Z,652.50
2018-05-04T13:16:56.823Z,652.50
2018-05-04T13:17:56.853Z,658.13
2018-05-04T13:18:56.871Z,646.88
2018-05-04T13:19:56.897Z,658.13
2018-05-04T13:20:56.924Z,652.50
2018-05-04T13:21:57.002Z,652.50
2018-05-04T13:22:56.966Z,652.50
2018-05-04T13:23:57.010Z,652.50